Kimberley, Arkansas
Current Conditions -  °F | °C
As of 5:00 AM on Monday 22 Dec 2014 (Local Time) from KMWT Reporting Station
Overcast Overcast  
Wind Chill: 49°   Ceiling: 900
Heat Index: 49°   Visibility: 10mi
Dew Point: 46°   Wind: 3mph
Humidity: 90%   Direction: NA
Pressure: 29.68"   Gusts: NA
Location:  34.0925°N, 93.718°W
Report Text: KMWT 221100Z AUTO VRB03KT 10SM OVC009 09/08 A2968 RMK AO2 T00940078
Loading
Personal Weather Stations






























Interactive Weather Map New forecast layout! Learn more

10-Day Weather Forecast

Advertisements
Track Severe Weather on mobile